Time;durP1;ratioP1;P1;durP2;ratioP2;P2;SDS_P1;SDS_P2;PMS_P1;PMS_P2;Temp;Humidity;BMP_temperature;BMP_pressure;BME280_temperature;BME280_humidity;BME280_pressure;Samples;Min_cycle;Max_cycle;Signal;HPM_P1;HPM_P2
2021/01/20 00:02:12;;;;;;;21.07;14.00;;;;;;;;;;5081083;28;20193;-70
2021/01/20 00:04:37;;;;;;;20.47;13.57;;;;;;;;;;5061255;28;20183;-70
2021/01/20 00:07:02;;;;;;;20.07;13.40;;;;;;;;;;5082402;28;20240;-70
2021/01/20 00:09:27;;;;;;;21.20;13.03;;;;;;;;;;5088898;28;20249;-70
2021/01/20 00:11:53;;;;;;;19.80;12.53;;;;;;;;;;5083333;28;20195;-71
2021/01/20 00:14:18;;;;;;;20.03;12.40;;;;;;;;;;5090888;28;20192;-70
2021/01/20 00:16:44;;;;;;;18.73;12.20;;;;;;;;;;5078162;28;20526;-70
2021/01/20 00:19:10;;;;;;;20.00;11.67;;;;;;;;;;5090071;28;20180;-70
2021/01/20 00:21:36;;;;;;;20.20;11.80;;;;;;;;;;5081324;28;20183;-68
2021/01/20 00:24:02;;;;;;;21.67;12.10;;;;;;;;;;5091955;28;20242;-70
2021/01/20 00:26:27;;;;;;;20.47;11.60;;;;;;;;;;5073509;28;20212;-67
2021/01/20 00:28:53;;;;;;;21.47;12.77;;;;;;;;;;5082164;28;20211;-69
2021/01/20 00:31:18;;;;;;;17.43;11.20;;;;;;;;;;5092517;28;20194;-69
2021/01/20 00:33:43;;;;;;;20.27;11.27;;;;;;;;;;5080824;28;20207;-69
2021/01/20 00:36:09;;;;;;;16.40;11.07;;;;;;;;;;5090085;28;20263;-69
2021/01/20 00:38:35;;;;;;;19.63;10.73;;;;;;;;;;5082920;28;20231;-70
2021/01/20 00:41:00;;;;;;;19.27;10.63;;;;;;;;;;5090385;28;20540;-70
2021/01/20 00:43:26;;;;;;;20.43;10.60;;;;;;;;;;5067054;28;20214;-69
2021/01/20 00:45:51;;;;;;;16.00;10.57;;;;;;;;;;5090834;28;20631;-69
2021/01/20 00:48:16;;;;;;;24.33;10.63;;;;;;;;;;5082425;28;20239;-70
2021/01/20 00:50:42;;;;;;;20.13;11.63;;;;;;;;;;5089929;28;20570;-70
2021/01/20 00:53:07;;;;;;;16.10;9.73;;;;;;;;;;5082331;28;20188;-69
2021/01/20 00:55:33;;;;;;;15.03;9.70;;;;;;;;;;5088242;28;20188;-69
2021/01/20 00:57:58;;;;;;;16.07;10.50;;;;;;;;;;5092232;28;20193;-69
2021/01/20 01:00:23;;;;;;;19.33;10.53;;;;;;;;;;5078256;28;20194;-69
2021/01/20 01:02:49;;;;;;;16.80;10.57;;;;;;;;;;5092031;28;20516;-69
2021/01/20 01:05:15;;;;;;;17.37;10.03;;;;;;;;;;5082906;28;20200;-68
2021/01/20 01:07:40;;;;;;;16.13;10.30;;;;;;;;;;5086661;28;20180;-70
2021/01/20 01:10:06;;;;;;;18.30;9.13;;;;;;;;;;5064318;28;20184;-69
2021/01/20 01:12:32;;;;;;;16.13;9.73;;;;;;;;;;5090635;28;20184;-69
2021/01/20 01:14:57;;;;;;;20.10;10.70;;;;;;;;;;5080283;28;20192;-70
2021/01/20 01:17:22;;;;;;;16.20;10.37;;;;;;;;;;5092012;28;20342;-70
2021/01/20 01:19:48;;;;;;;15.33;9.60;;;;;;;;;;5078465;28;20692;-69
2021/01/20 01:22:13;;;;;;;15.83;9.73;;;;;;;;;;5090939;28;20194;-70
2021/01/20 01:24:39;;;;;;;17.00;10.47;;;;;;;;;;5064553;28;20489;-70
2021/01/20 01:27:05;;;;;;;15.63;10.20;;;;;;;;;;5096265;28;20562;-70
2021/01/20 01:29:30;;;;;;;17.37;9.77;;;;;;;;;;5085407;28;20204;-70
2021/01/20 01:31:56;;;;;;;20.10;9.70;;;;;;;;;;5092493;28;20195;-70
2021/01/20 01:34:21;;;;;;;13.90;9.07;;;;;;;;;;5090902;28;20234;-70
2021/01/20 01:36:46;;;;;;;16.27;9.33;;;;;;;;;;5082698;28;20185;-70
2021/01/20 01:39:12;;;;;;;13.43;8.60;;;;;;;;;;5089008;28;20259;-70
2021/01/20 01:41:38;;;;;;;12.93;7.80;;;;;;;;;;5082455;28;20214;-70
2021/01/20 01:44:03;;;;;;;15.53;8.10;;;;;;;;;;5089874;28;20227;-70
2021/01/20 01:46:29;;;;;;;14.47;7.87;;;;;;;;;;5079461;28;20179;-70
2021/01/20 01:48:54;;;;;;;14.83;8.57;;;;;;;;;;5087690;28;20267;-70
2021/01/20 01:51:23;;;;;;;13.03;7.80;;;;;;;;;;5082100;28;20655;-70
2021/01/20 01:53:50;;;;;;;12.57;7.10;;;;;;;;;;5088272;28;20180;-70
2021/01/20 01:56:15;;;;;;;15.03;7.87;;;;;;;;;;5095114;28;20549;-68
2021/01/20 01:58:41;;;;;;;11.20;7.03;;;;;;;;;;5084703;28;20185;-70
2021/01/20 02:01:07;;;;;;;13.53;7.13;;;;;;;;;;5100207;28;20200;-70
2021/01/20 02:03:32;;;;;;;12.23;7.07;;;;;;;;;;5063383;28;20194;-70
2021/01/20 02:05:58;;;;;;;14.13;6.80;;;;;;;;;;5090995;28;20204;-70
2021/01/20 02:08:23;;;;;;;12.10;6.57;;;;;;;;;;5063311;28;20235;-70
2021/01/20 02:10:52;;;;;;;10.90;6.33;;;;;;;;;;5089979;28;20590;-69
2021/01/20 02:13:30;;;;;;;13.30;6.43;;;;;;;;;;5080754;28;20190;-70
2021/01/20 02:16:05;;;;;;;15.17;6.20;;;;;;;;;;5073094;28;20245;-70
2021/01/20 02:18:34;;;;;;;12.87;6.23;;;;;;;;;;5077845;28;20256;-70
2021/01/20 02:21:09;;;;;;;13.67;6.60;;;;;;;;;;5088137;28;20188;-70
2021/01/20 02:23:40;;;;;;;8.63;5.90;;;;;;;;;;5062216;28;20196;-70
2021/01/20 02:26:17;;;;;;;11.40;6.40;;;;;;;;;;5091882;28;20187;-70
2021/01/20 02:28:51;;;;;;;12.70;6.83;;;;;;;;;;5078492;28;20216;-70
2021/01/20 02:31:20;;;;;;;12.33;6.20;;;;;;;;;;5084931;28;20188;-70
2021/01/20 02:33:47;;;;;;;13.77;6.23;;;;;;;;;;5083382;28;20192;-70
2021/01/20 02:36:15;;;;;;;12.17;6.17;;;;;;;;;;5090802;28;20192;-70
2021/01/20 02:38:41;;;;;;;13.10;5.77;;;;;;;;;;5078921;28;20259;-70
2021/01/20 02:41:07;;;;;;;12.93;6.17;;;;;;;;;;5088748;28;20220;-70
2021/01/20 02:43:32;;;;;;;11.77;6.30;;;;;;;;;;5083905;28;20524;-69
2021/01/20 02:45:58;;;;;;;11.07;5.97;;;;;;;;;;5079863;28;20184;-70
2021/01/20 02:48:23;;;;;;;14.63;6.87;;;;;;;;;;5088910;28;20223;-69
2021/01/20 02:50:49;;;;;;;17.60;5.97;;;;;;;;;;5076975;28;20194;-70
2021/01/20 02:53:20;;;;;;;11.63;5.40;;;;;;;;;;5072586;28;20184;-70
2021/01/20 02:55:53;;;;;;;9.17;5.47;;;;;;;;;;5077823;28;20218;-70
2021/01/20 02:58:27;;;;;;;12.10;5.93;;;;;;;;;;5091291;28;20225;-70
2021/01/20 03:00:53;;;;;;;11.63;5.90;;;;;;;;;;5078896;28;20195;-70
2021/01/20 03:03:20;;;;;;;11.63;5.73;;;;;;;;;;5079435;28;20207;-70
2021/01/20 03:05:46;;;;;;;10.63;5.90;;;;;;;;;;5061690;28;20684;-68
2021/01/20 03:08:12;;;;;;;11.53;5.67;;;;;;;;;;5090716;28;20223;-70
2021/01/20 03:10:38;;;;;;;12.60;5.90;;;;;;;;;;5079217;28;20196;-70
2021/01/20 03:13:03;;;;;;;14.37;5.67;;;;;;;;;;5089280;28;20671;-70
2021/01/20 03:15:34;;;;;;;11.60;6.20;;;;;;;;;;5079902;28;20318;-70
2021/01/20 03:17:59;;;;;;;12.47;6.20;;;;;;;;;;5084402;28;20188;-70
2021/01/20 03:20:25;;;;;;;15.17;6.27;;;;;;;;;;5089122;28;20195;-70
2021/01/20 03:22:50;;;;;;;11.53;6.50;;;;;;;;;;5086291;28;20222;-70
2021/01/20 03:25:15;;;;;;;11.47;6.50;;;;;;;;;;5086740;28;20605;-70
2021/01/20 03:27:41;;;;;;;12.47;6.87;;;;;;;;;;5079527;28;20184;-70
2021/01/20 03:30:07;;;;;;;9.63;6.07;;;;;;;;;;5087941;28;20191;-70
2021/01/20 03:32:33;;;;;;;14.50;6.37;;;;;;;;;;5078862;28;20184;-70
2021/01/20 03:34:59;;;;;;;12.73;6.17;;;;;;;;;;5088387;28;20550;-70
2021/01/20 03:37:24;;;;;;;14.17;6.43;;;;;;;;;;5078056;28;20223;-70
2021/01/20 03:39:50;;;;;;;10.30;6.73;;;;;;;;;;5086666;28;20271;-70
2021/01/20 03:42:15;;;;;;;11.23;6.40;;;;;;;;;;5077694;28;20187;-70
2021/01/20 03:44:40;;;;;;;12.23;6.80;;;;;;;;;;5085810;28;20238;-70
2021/01/20 03:47:06;;;;;;;13.20;6.47;;;;;;;;;;5078108;28;20186;-70
2021/01/20 03:49:31;;;;;;;10.80;6.63;;;;;;;;;;5087292;28;20247;-70
2021/01/20 03:51:56;;;;;;;11.80;6.47;;;;;;;;;;5073093;28;20211;-71
2021/01/20 03:54:22;;;;;;;13.63;7.03;;;;;;;;;;5076484;28;20180;-70
2021/01/20 03:56:47;;;;;;;9.47;6.37;;;;;;;;;;5085963;28;20558;-70
2021/01/20 03:59:12;;;;;;;14.40;7.20;;;;;;;;;;5078398;28;20180;-69
2021/01/20 04:01:38;;;;;;;12.23;7.23;;;;;;;;;;5092634;28;20184;-70
2021/01/20 04:04:03;;;;;;;11.13;7.10;;;;;;;;;;5076480;28;20196;-70
2021/01/20 04:06:29;;;;;;;15.73;7.40;;;;;;;;;;5084867;28;20233;-70
2021/01/20 04:08:54;;;;;;;12.90;7.33;;;;;;;;;;5078367;28;20647;-70
2021/01/20 04:11:20;;;;;;;15.53;7.90;;;;;;;;;;5089572;28;20192;-70
2021/01/20 04:13:49;;;;;;;13.00;7.73;;;;;;;;;;5078475;28;20184;-70
2021/01/20 04:16:15;;;;;;;10.90;6.97;;;;;;;;;;5087530;28;20191;-70
2021/01/20 04:18:41;;;;;;;14.70;7.53;;;;;;;;;;5077013;28;20196;-70
2021/01/20 04:21:06;;;;;;;13.33;7.03;;;;;;;;;;5097786;28;20179;-70
2021/01/20 04:23:36;;;;;;;15.83;7.43;;;;;;;;;;5087805;28;20187;-70
2021/01/20 04:26:01;;;;;;;13.90;7.67;;;;;;;;;;5085942;28;20339;-70
2021/01/20 04:28:27;;;;;;;15.47;7.10;;;;;;;;;;5084199;28;20302;-70
2021/01/20 04:30:52;;;;;;;11.33;7.50;;;;;;;;;;5075666;28;20572;-70
2021/01/20 04:33:18;;;;;;;13.47;6.70;;;;;;;;;;5085656;28;20238;-71
2021/01/20 04:35:43;;;;;;;12.50;6.57;;;;;;;;;;5080439;28;20216;-70
2021/01/20 04:38:08;;;;;;;12.80;7.53;;;;;;;;;;5084220;28;20216;-71
2021/01/20 04:40:33;;;;;;;9.67;6.27;;;;;;;;;;5077016;28;20195;-70
2021/01/20 04:43:00;;;;;;;9.13;6.30;;;;;;;;;;5069387;28;20238;-70
2021/01/20 04:45:26;;;;;;;11.27;6.30;;;;;;;;;;5079955;28;20180;-71
2021/01/20 04:47:52;;;;;;;14.50;5.83;;;;;;;;;;5088341;28;20188;-70
2021/01/20 04:50:20;;;;;;;14.83;7.43;;;;;;;;;;5081282;28;20242;-71
2021/01/20 04:52:47;;;;;;;10.63;5.77;;;;;;;;;;5090343;28;20191;-70
2021/01/20 04:55:16;;;;;;;11.70;6.40;;;;;;;;;;5099483;28;20192;-70
2021/01/20 04:57:41;;;;;;;8.87;5.73;;;;;;;;;;5085157;28;20184;-70
2021/01/20 05:00:08;;;;;;;12.50;6.07;;;;;;;;;;5104101;28;20719;-70
2021/01/20 05:02:35;;;;;;;9.17;5.63;;;;;;;;;;5080267;28;20186;-70
2021/01/20 05:05:01;;;;;;;12.83;6.10;;;;;;;;;;5091001;28;20651;-71
2021/01/20 05:07:27;;;;;;;10.87;5.70;;;;;;;;;;5080440;28;20271;-71
2021/01/20 05:09:53;;;;;;;8.43;5.50;;;;;;;;;;5089096;28;20231;-71
2021/01/20 05:12:39;;;;;;;10.83;4.93;;;;;;;;;;5082792;28;20228;-71
2021/01/20 05:15:06;;;;;;;10.90;5.57;;;;;;;;;;5085144;28;20318;-71
2021/01/20 05:17:33;;;;;;;10.43;4.90;;;;;;;;;;5080344;28;20195;-71
2021/01/20 05:19:59;;;;;;;11.90;5.53;;;;;;;;;;5092446;28;20180;-70
2021/01/20 05:22:24;;;;;;;9.20;5.40;;;;;;;;;;5077749;28;20540;-71
2021/01/20 05:24:57;;;;;;;8.37;5.07;;;;;;;;;;5089195;28;20188;-70
2021/01/20 05:27:30;;;;;;;7.70;5.10;;;;;;;;;;5079141;28;20267;-71
2021/01/20 05:30:06;;;;;;;12.60;4.80;;;;;;;;;;5090327;28;20231;-70
2021/01/20 05:32:32;;;;;;;7.77;4.40;;;;;;;;;;5079410;28;20543;-70
2021/01/20 05:35:03;;;;;;;7.43;4.50;;;;;;;;;;5088764;28;20643;-70
2021/01/20 05:37:29;;;;;;;6.77;4.20;;;;;;;;;;5076633;28;20232;-69
2021/01/20 05:40:12;;;;;;;6.07;4.33;;;;;;;;;;5088188;28;20527;-70
2021/01/20 05:42:44;;;;;;;6.23;3.70;;;;;;;;;;5085065;28;20293;-70
2021/01/20 05:45:10;;;;;;;6.70;4.30;;;;;;;;;;5084635;28;20545;-70
2021/01/20 05:47:36;;;;;;;6.67;4.10;;;;;;;;;;5089899;28;20209;-70
2021/01/20 05:50:08;;;;;;;7.03;4.30;;;;;;;;;;5081852;28;20246;-70
2021/01/20 05:52:33;;;;;;;8.30;4.13;;;;;;;;;;5089842;28;20180;-70
2021/01/20 05:55:09;;;;;;;6.63;4.20;;;;;;;;;;5082598;28;20236;-70
2021/01/20 05:57:34;;;;;;;8.00;3.93;;;;;;;;;;5083740;28;20179;-70
2021/01/20 06:00:13;;;;;;;6.97;3.97;;;;;;;;;;5082009;28;20224;-71
2021/01/20 06:02:39;;;;;;;9.37;4.33;;;;;;;;;;5086580;28;20191;-71
2021/01/20 06:05:05;;;;;;;5.37;3.90;;;;;;;;;;5078834;28;20249;-70
2021/01/20 06:07:31;;;;;;;8.33;3.90;;;;;;;;;;5089502;28;20609;-68
2021/01/20 06:10:01;;;;;;;6.03;3.83;;;;;;;;;;5078983;28;20253;-69
2021/01/20 06:12:26;;;;;;;5.60;3.73;;;;;;;;;;5086721;28;20195;-70
2021/01/20 06:14:51;;;;;;;6.43;3.87;;;;;;;;;;5081328;28;20184;-70
2021/01/20 06:17:28;;;;;;;6.70;3.97;;;;;;;;;;5088437;28;20271;-70
2021/01/20 06:20:00;;;;;;;7.67;4.10;;;;;;;;;;5074953;28;20781;-70
2021/01/20 06:22:27;;;;;;;10.67;4.50;;;;;;;;;;5087357;28;20188;-70
2021/01/20 06:24:57;;;;;;;7.27;4.00;;;;;;;;;;5077587;28;20184;-70
2021/01/20 06:27:35;;;;;;;7.17;4.60;;;;;;;;;;5087346;28;20199;-70
2021/01/20 06:30:16;;;;;;;7.97;4.23;;;;;;;;;;5077164;28;20291;-70
2021/01/20 06:32:43;;;;;;;8.57;4.13;;;;;;;;;;5086058;28;20192;-70
2021/01/20 06:35:10;;;;;;;8.13;3.83;;;;;;;;;;5081686;28;20192;-70
2021/01/20 06:37:48;;;;;;;6.97;4.10;;;;;;;;;;5086047;28;20540;-67
2021/01/20 06:40:23;;;;;;;9.20;4.10;;;;;;;;;;5085969;28;20179;-70
2021/01/20 06:42:49;;;;;;;6.37;3.73;;;;;;;;;;5077761;28;20195;-70
2021/01/20 06:45:18;;;;;;;7.82;4.00;;;;;;;;;;5081270;28;20182;-70
2021/01/20 06:48:04;;;;;;;6.30;3.63;;;;;;;;;;5076318;28;20257;-70
2021/01/20 06:50:53;;;;;;;9.20;3.67;;;;;;;;;;5085506;28;20212;-70
2021/01/20 06:53:19;;;;;;;6.13;3.60;;;;;;;;;;5075306;28;20652;-70
2021/01/20 06:55:44;;;;;;;7.30;3.40;;;;;;;;;;5085013;28;20230;-69
2021/01/20 06:58:26;;;;;;;6.60;3.47;;;;;;;;;;5051503;28;20234;-69
2021/01/20 07:01:01;;;;;;;6.63;3.43;;;;;;;;;;5086782;28;20222;-68
2021/01/20 07:03:39;;;;;;;5.50;3.60;;;;;;;;;;5076817;28;20549;-69
2021/01/20 07:06:33;;;;;;;6.27;3.80;;;;;;;;;;5087486;28;20298;-69
2021/01/20 07:09:00;;;;;;;6.73;3.33;;;;;;;;;;5075805;28;20210;-69
2021/01/20 07:11:25;;;;;;;6.20;3.53;;;;;;;;;;5068081;28;20206;-69
2021/01/20 07:13:51;;;;;;;6.93;3.87;;;;;;;;;;5078287;28;20184;-70
2021/01/20 07:16:17;;;;;;;6.80;4.27;;;;;;;;;;5087979;28;20194;-70
2021/01/20 07:18:45;;;;;;;6.03;2.90;;;;;;;;;;5074550;28;20701;-69
2021/01/20 07:21:10;;;;;;;8.13;3.20;;;;;;;;;;5088127;28;20191;-70
2021/01/20 07:23:36;;;;;;;5.30;3.63;;;;;;;;;;5076282;28;20545;-70
2021/01/20 07:26:03;;;;;;;6.37;3.23;;;;;;;;;;5086859;28;20293;-69
2021/01/20 07:28:29;;;;;;;7.80;3.70;;;;;;;;;;5074835;28;20236;-69
2021/01/20 07:31:05;;;;;;;3.90;2.83;;;;;;;;;;5081603;28;20207;-70
2021/01/20 07:33:31;;;;;;;7.47;2.90;;;;;;;;;;5074089;28;20667;-71
2021/01/20 07:36:07;;;;;;;4.70;2.97;;;;;;;;;;5083700;28;20574;-70
2021/01/20 07:38:32;;;;;;;7.13;3.40;;;;;;;;;;5074449;28;20227;-70
2021/01/20 07:40:58;;;;;;;5.80;3.07;;;;;;;;;;5081828;28;20232;-70
2021/01/20 07:43:24;;;;;;;5.37;3.10;;;;;;;;;;5082547;28;20180;-70
2021/01/20 07:45:53;;;;;;;5.03;2.70;;;;;;;;;;5056873;28;20545;-69
2021/01/20 07:48:29;;;;;;;6.10;3.20;;;;;;;;;;5083482;28;20199;-70
2021/01/20 07:50:55;;;;;;;7.20;2.90;;;;;;;;;;5075552;28;20266;-69
2021/01/20 07:53:20;;;;;;;4.37;2.63;;;;;;;;;;5084105;28;20258;-69
2021/01/20 07:55:52;;;;;;;6.43;3.40;;;;;;;;;;5072575;28;20940;-70
2021/01/20 07:58:17;;;;;;;5.20;2.30;;;;;;;;;;5082244;28;20172;-70
2021/01/20 08:00:43;;;;;;;5.47;2.87;;;;;;;;;;5074946;28;20191;-69
2021/01/20 08:03:08;;;;;;;4.70;2.77;;;;;;;;;;5087407;28;20176;-69
2021/01/20 08:05:34;;;;;;;3.47;2.37;;;;;;;;;;5075068;28;20807;-70
2021/01/20 08:08:04;;;;;;;4.00;2.43;;;;;;;;;;5087838;28;20751;-70
2021/01/20 08:10:29;;;;;;;3.45;2.22;;;;;;;;;;5078140;28;20184;-70
2021/01/20 08:12:55;;;;;;;4.40;2.60;;;;;;;;;;5086436;28;20176;-69
2021/01/20 08:15:21;;;;;;;4.70;2.43;;;;;;;;;;5059799;28;20195;-70
2021/01/20 08:17:46;;;;;;;4.93;2.70;;;;;;;;;;5085961;28;20173;-70
2021/01/20 08:20:12;;;;;;;3.53;2.20;;;;;;;;;;5088976;28;20230;-70
2021/01/20 08:22:47;;;;;;;3.60;2.10;;;;;;;;;;5081492;28;20192;-69
2021/01/20 08:25:21;;;;;;;4.28;2.50;;;;;;;;;;5086384;28;20207;-69
2021/01/20 08:27:47;;;;;;;3.27;2.17;;;;;;;;;;5081397;28;20547;-70
2021/01/20 08:30:27;;;;;;;4.23;2.30;;;;;;;;;;5088398;28;20211;-68
2021/01/20 08:32:54;;;;;;;3.83;2.10;;;;;;;;;;5082288;28;20187;-70
2021/01/20 08:35:29;;;;;;;3.80;2.42;;;;;;;;;;5094111;28;20272;-69
2021/01/20 08:37:55;;;;;;;4.63;2.40;;;;;;;;;;5081040;28;20607;-69
2021/01/20 08:40:20;;;;;;;4.03;2.43;;;;;;;;;;5092063;28;20193;-70
2021/01/20 08:42:46;;;;;;;3.63;2.30;;;;;;;;;;5081087;28;20219;-70
2021/01/20 08:45:15;;;;;;;5.00;2.20;;;;;;;;;;5089163;28;20187;-70
2021/01/20 08:47:48;;;;;;;4.33;1.90;;;;;;;;;;5075316;28;20266;-70
2021/01/20 08:50:16;;;;;;;3.45;2.15;;;;;;;;;;5087644;28;20257;-70
2021/01/20 08:52:51;;;;;;;4.03;2.40;;;;;;;;;;5062258;28;20612;-70
2021/01/20 08:55:24;;;;;;;3.40;2.33;;;;;;;;;;5070996;28;20511;-70
2021/01/20 08:58:27;;;;;;;3.38;2.47;;;;;;;;;;5079120;28;20678;-68
2021/01/20 09:01:09;;;;;;;3.13;2.05;;;;;;;;;;5085987;28;20180;-70
2021/01/20 09:03:37;;;;;;;4.25;2.08;;;;;;;;;;5077951;28;20639;-70
2021/01/20 09:06:20;;;;;;;3.45;2.17;;;;;;;;;;5085692;28;20216;-69
2021/01/20 09:08:45;;;;;;;2.42;2.00;;;;;;;;;;5079100;28;20231;-67
2021/01/20 09:11:10;;;;;;;3.72;2.33;;;;;;;;;;5090197;28;20207;-69
2021/01/20 09:13:36;;;;;;;2.50;1.90;;;;;;;;;;5081820;28;20226;-69
2021/01/20 09:16:02;;;;;;;3.28;2.38;;;;;;;;;;5088647;28;20233;-68
2021/01/20 09:18:27;;;;;;;3.08;2.20;;;;;;;;;;5079897;28;20181;-69
2021/01/20 09:20:53;;;;;;;3.58;2.28;;;;;;;;;;5089155;28;20617;-69
2021/01/20 09:23:19;;;;;;;3.30;2.00;;;;;;;;;;5067505;28;20212;-68
2021/01/20 09:25:45;;;;;;;3.92;2.28;;;;;;;;;;5077104;28;20263;-67
2021/01/20 09:28:11;;;;;;;4.37;2.50;;;;;;;;;;5091532;28;20621;-69
2021/01/20 09:30:36;;;;;;;3.65;2.38;;;;;;;;;;5058669;28;20253;-67
2021/01/20 09:33:03;;;;;;;3.08;1.85;;;;;;;;;;5091690;28;20545;-69
2021/01/20 09:35:29;;;;;;;5.25;2.13;;;;;;;;;;5076170;28;20188;-69
2021/01/20 09:37:54;;;;;;;3.60;2.00;;;;;;;;;;5089117;28;20272;-70
2021/01/20 09:40:22;;;;;;;3.20;1.90;;;;;;;;;;5079095;28;20542;-70
2021/01/20 09:42:48;;;;;;;4.63;2.25;;;;;;;;;;5088027;28;20183;-69
2021/01/20 09:45:15;;;;;;;2.00;1.73;;;;;;;;;;5077483;28;20600;-69
2021/01/20 09:47:45;;;;;;;3.30;2.08;;;;;;;;;;5084815;28;20175;-70
2021/01/20 09:50:13;;;;;;;3.53;2.00;;;;;;;;;;5075898;28;20824;-70
2021/01/20 09:52:39;;;;;;;2.17;1.83;;;;;;;;;;5086256;28;20183;-69
2021/01/20 09:55:05;;;;;;;3.63;1.70;;;;;;;;;;5076634;28;20200;-70
2021/01/20 09:57:31;;;;;;;3.40;1.60;;;;;;;;;;5067576;28;20234;-70
2021/01/20 09:59:56;;;;;;;3.45;1.73;;;;;;;;;;5086595;28;20180;-70
2021/01/20 10:02:21;;;;;;;3.23;1.90;;;;;;;;;;5079353;28;20184;-70
2021/01/20 10:04:47;;;;;;;3.77;1.90;;;;;;;;;;5088389;28;20200;-70
2021/01/20 10:07:14;;;;;;;3.17;1.77;;;;;;;;;;5060877;28;20191;-70
2021/01/20 10:09:39;;;;;;;3.37;1.87;;;;;;;;;;5087861;28;20268;-69
2021/01/20 10:12:06;;;;;;;4.13;2.10;;;;;;;;;;5079608;28;20184;-70
2021/01/20 10:14:31;;;;;;;2.63;1.70;;;;;;;;;;4370185;28;10000793;-69
2021/01/20 10:16:57;;;;;;;3.45;1.85;;;;;;;;;;5077922;28;20278;-70
2021/01/20 10:19:22;;;;;;;2.93;1.73;;;;;;;;;;5064852;28;20546;-70
2021/01/20 10:21:47;;;;;;;2.10;1.67;;;;;;;;;;4716703;28;10000062;-71
2021/01/20 10:24:13;;;;;;;2.10;1.60;;;;;;;;;;5078675;28;20241;-70
2021/01/20 10:26:39;;;;;;;3.03;1.73;;;;;;;;;;5073202;28;20248;-70
2021/01/20 10:29:05;;;;;;;5.43;1.90;;;;;;;;;;5058420;28;20211;-70
2021/01/20 10:31:41;;;;;;;2.97;1.60;;;;;;;;;;5082617;28;20699;-70
2021/01/20 10:34:07;;;;;;;1.75;1.42;;;;;;;;;;5073060;28;20547;-70
2021/01/20 10:36:33;;;;;;;2.72;1.63;;;;;;;;;;5078220;28;20592;-70
2021/01/20 10:38:59;;;;;;;2.42;1.65;;;;;;;;;;5077044;28;20269;-70
2021/01/20 10:41:25;;;;;;;4.30;1.95;;;;;;;;;;5086178;28;20184;-70
2021/01/20 10:43:53;;;;;;;1.75;1.55;;;;;;;;;;5076904;28;20191;-71
2021/01/20 10:46:19;;;;;;;2.50;1.70;;;;;;;;;;5083291;28;20244;-71
2021/01/20 10:48:45;;;;;;;2.92;1.95;;;;;;;;;;5065697;28;20212;-71
2021/01/20 10:51:11;;;;;;;2.85;1.83;;;;;;;;;;5068706;28;20204;-69
2021/01/20 10:53:37;;;;;;;2.00;1.65;;;;;;;;;;5068152;28;20266;-69
2021/01/20 10:56:03;;;;;;;3.20;1.42;;;;;;;;;;5076017;28;20188;-69
2021/01/20 10:58:28;;;;;;;3.05;1.83;;;;;;;;;;5065703;28;20184;-70
2021/01/20 11:00:53;;;;;;;4.55;2.85;;;;;;;;;;5078687;28;20175;-71
2021/01/20 11:03:19;;;;;;;6.30;2.00;;;;;;;;;;5074888;28;20215;-71
2021/01/20 11:05:45;;;;;;;3.78;1.80;;;;;;;;;;5068041;28;20221;-70
2021/01/20 11:08:10;;;;;;;2.53;1.60;;;;;;;;;;5074892;28;20237;-70
2021/01/20 11:10:37;;;;;;;2.05;1.55;;;;;;;;;;5070382;28;20196;-70
2021/01/20 11:13:07;;;;;;;2.65;1.52;;;;;;;;;;5075525;28;20195;-70
2021/01/20 11:15:37;;;;;;;2.13;1.48;;;;;;;;;;5072031;28;20204;-69
2021/01/20 11:18:04;;;;;;;3.60;1.50;;;;;;;;;;5076639;28;20191;-69
2021/01/20 11:20:29;;;;;;;3.38;1.45;;;;;;;;;;5055428;28;20651;-70
2021/01/20 11:22:55;;;;;;;4.15;2.10;;;;;;;;;;5074511;28;20191;-69
2021/01/20 11:25:20;;;;;;;2.80;1.50;;;;;;;;;;5068104;28;20192;-70
2021/01/20 11:27:46;;;;;;;3.67;1.40;;;;;;;;;;5059141;28;20199;-70
2021/01/20 11:30:11;;;;;;;3.97;1.60;;;;;;;;;;5069050;28;21101;-71
2021/01/20 11:32:37;;;;;;;3.00;1.55;;;;;;;;;;5073831;28;21213;-71
2021/01/20 11:35:03;;;;;;;1.63;1.42;;;;;;;;;;5077824;28;20188;-71
2021/01/20 11:37:28;;;;;;;2.42;1.40;;;;;;;;;;5067865;28;20237;-70
2021/01/20 11:39:53;;;;;;;3.25;1.50;;;;;;;;;;5075032;28;20176;-70
2021/01/20 11:42:19;;;;;;;2.60;1.58;;;;;;;;;;5065856;28;20269;-71
2021/01/20 11:44:44;;;;;;;4.07;1.75;;;;;;;;;;5073935;28;20203;-70
2021/01/20 11:47:09;;;;;;;2.90;1.33;;;;;;;;;;5064395;28;20195;-70
2021/01/20 11:49:35;;;;;;;2.85;1.67;;;;;;;;;;5074894;28;20196;-70
2021/01/20 11:52:00;;;;;;;2.38;1.67;;;;;;;;;;5064492;28;20200;-70
2021/01/20 11:54:25;;;;;;;4.07;1.55;;;;;;;;;;5075409;28;20188;-69
2021/01/20 11:56:53;;;;;;;4.43;1.52;;;;;;;;;;5067276;28;20734;-69
2021/01/20 11:59:19;;;;;;;3.20;1.52;;;;;;;;;;5081083;28;20184;-70
2021/01/20 12:01:44;;;;;;;3.45;1.90;;;;;;;;;;5072724;28;20238;-71
2021/01/20 12:04:09;;;;;;;3.30;1.60;;;;;;;;;;5077943;28;20213;-70
2021/01/20 12:06:35;;;;;;;3.33;1.70;;;;;;;;;;5076336;28;20281;-68
2021/01/20 12:09:00;;;;;;;3.60;1.67;;;;;;;;;;5068791;28;20863;-70
2021/01/20 12:11:25;;;;;;;2.30;1.50;;;;;;;;;;5081401;28;20325;-70
2021/01/20 12:13:51;;;;;;;4.00;1.80;;;;;;;;;;5074267;28;20258;-69
2021/01/20 12:16:16;;;;;;;3.00;1.60;;;;;;;;;;5083427;28;20184;-69
2021/01/20 12:18:41;;;;;;;3.08;1.92;;;;;;;;;;5072438;28;20689;-67
2021/01/20 12:21:07;;;;;;;4.05;1.88;;;;;;;;;;5077979;28;20192;-69
2021/01/20 12:23:32;;;;;;;3.50;1.63;;;;;;;;;;5075230;28;20179;-69
2021/01/20 12:25:58;;;;;;;2.38;1.42;;;;;;;;;;5080783;28;20188;-69
2021/01/20 12:28:23;;;;;;;4.57;2.00;;;;;;;;;;5068903;28;20208;-69
2021/01/20 12:30:48;;;;;;;3.30;1.35;;;;;;;;;;5079982;28;20241;-70
2021/01/20 12:33:14;;;;;;;2.63;1.50;;;;;;;;;;5078203;28;20198;-70
2021/01/20 12:35:39;;;;;;;2.63;1.40;;;;;;;;;;5071717;28;20188;-71
2021/01/20 12:38:05;;;;;;;3.65;1.58;;;;;;;;;;5086966;28;20599;-70
2021/01/20 12:40:31;;;;;;;3.67;1.55;;;;;;;;;;5082315;28;20199;-71
2021/01/20 12:42:56;;;;;;;3.20;1.60;;;;;;;;;;5089859;28;20690;-70
2021/01/20 12:45:22;;;;;;;3.70;1.60;;;;;;;;;;5071335;28;20187;-70
2021/01/20 12:47:47;;;;;;;3.17;1.73;;;;;;;;;;5089311;28;20223;-70
2021/01/20 12:50:13;;;;;;;2.22;1.38;;;;;;;;;;5080564;28;20212;-69
2021/01/20 12:52:39;;;;;;;2.33;1.50;;;;;;;;;;5093177;28;20190;-69
2021/01/20 12:55:05;;;;;;;4.10;1.80;;;;;;;;;;5078140;28;20176;-70
2021/01/20 12:57:30;;;;;;;3.50;1.67;;;;;;;;;;5096009;28;20191;-70
2021/01/20 12:59:56;;;;;;;2.83;1.38;;;;;;;;;;5081132;28;20557;-71
2021/01/20 13:02:21;;;;;;;3.08;1.95;;;;;;;;;;5095380;28;20658;-69
2021/01/20 13:04:46;;;;;;;1.88;1.30;;;;;;;;;;5070425;28;20180;-70
2021/01/20 13:07:13;;;;;;;2.95;1.52;;;;;;;;;;5086135;28;21328;-70
2021/01/20 13:09:38;;;;;;;3.25;1.58;;;;;;;;;;5091425;28;20288;-71
2021/01/20 13:12:04;;;;;;;4.00;1.48;;;;;;;;;;5084220;28;21118;-69
2021/01/20 13:14:29;;;;;;;2.47;1.48;;;;;;;;;;5085901;28;20180;-70
2021/01/20 13:16:54;;;;;;;4.57;1.80;;;;;;;;;;5082343;28;20188;-70
2021/01/20 13:19:21;;;;;;;3.17;1.90;;;;;;;;;;5092000;28;20622;-67
2021/01/20 13:21:47;;;;;;;3.13;1.92;;;;;;;;;;5083014;28;20199;-69
2021/01/20 13:24:12;;;;;;;4.70;1.90;;;;;;;;;;5091807;28;20519;-70
2021/01/20 13:26:37;;;;;;;2.50;1.58;;;;;;;;;;5085814;28;20237;-70
2021/01/20 13:29:02;;;;;;;2.42;1.70;;;;;;;;;;5089421;28;20215;-70
2021/01/20 13:31:28;;;;;;;2.72;1.70;;;;;;;;;;5087616;28;20236;-70
2021/01/20 13:33:53;;;;;;;5.03;1.83;;;;;;;;;;5065244;28;20183;-69
2021/01/20 13:36:19;;;;;;;5.90;1.92;;;;;;;;;;5090982;28;20191;-69
2021/01/20 13:38:44;;;;;;;3.25;1.65;;;;;;;;;;5071913;28;20703;-69
2021/01/20 13:41:10;;;;;;;4.53;1.70;;;;;;;;;;5070908;28;20283;-69
2021/01/20 13:43:35;;;;;;;3.65;1.58;;;;;;;;;;5069271;28;20535;-69
2021/01/20 13:46:00;;;;;;;2.78;1.80;;;;;;;;;;5080455;28;20196;-69
2021/01/20 13:48:26;;;;;;;2.40;1.63;;;;;;;;;;5068773;28;20238;-69
2021/01/20 13:50:51;;;;;;;4.80;2.00;;;;;;;;;;5078347;28;20999;-70
2021/01/20 13:53:16;;;;;;;2.85;1.60;;;;;;;;;;5070314;28;20282;-70
2021/01/20 13:55:42;;;;;;;8.23;2.17;;;;;;;;;;5079432;28;20180;-69
2021/01/20 13:58:07;;;;;;;5.93;1.95;;;;;;;;;;5068851;28;20601;-69
2021/01/20 14:00:32;;;;;;;5.20;1.77;;;;;;;;;;5066209;28;20180;-70
2021/01/20 14:02:58;;;;;;;5.53;2.10;;;;;;;;;;5078125;28;20188;-69
2021/01/20 14:05:23;;;;;;;3.78;2.08;;;;;;;;;;5076850;28;20218;-70
2021/01/20 14:07:49;;;;;;;3.95;2.05;;;;;;;;;;5075341;28;20188;-69
2021/01/20 14:10:14;;;;;;;2.83;1.73;;;;;;;;;;5071595;28;20311;-70
2021/01/20 14:12:39;;;;;;;3.92;2.03;;;;;;;;;;5077370;28;20184;-70
2021/01/20 14:15:05;;;;;;;6.97;1.95;;;;;;;;;;5075196;28;21206;-70
2021/01/20 14:17:31;;;;;;;3.10;2.08;;;;;;;;;;5077339;28;20194;-70
2021/01/20 14:20:00;;;;;;;4.00;1.80;;;;;;;;;;5071833;28;20192;-70
2021/01/20 14:22:26;;;;;;;4.53;1.90;;;;;;;;;;5078405;28;20303;-70
2021/01/20 14:24:52;;;;;;;3.42;1.98;;;;;;;;;;5070502;28;20293;-70
2021/01/20 14:27:17;;;;;;;4.40;1.98;;;;;;;;;;5076262;28;20176;-70
2021/01/20 14:29:42;;;;;;;6.07;2.28;;;;;;;;;;5068792;28;20253;-70
2021/01/20 14:32:07;;;;;;;3.20;1.83;;;;;;;;;;5078668;28;20192;-70
2021/01/20 14:34:33;;;;;;;3.67;2.15;;;;;;;;;;5074993;28;20307;-70
2021/01/20 14:36:58;;;;;;;3.83;1.98;;;;;;;;;;5067020;28;20225;-71
2021/01/20 14:39:24;;;;;;;5.00;2.15;;;;;;;;;;5092816;28;20247;-70